Time;durP1;ratioP1;P1;durP2;ratioP2;P2;SDS_P1;SDS_P2;PMS_P1;PMS_P2;Temp;Humidity;BMP_temperature;BMP_pressure;BME280_temperature;BME280_humidity;BME280_pressure;Samples;Min_cycle;Max_cycle;Signal;HPM_P1;HPM_P2
2021/07/26 00:02:22;;;;;;;11.63;4.93;;;;;;;12.86;100.00;93475.63;5075785;28;20592;-79
2021/07/26 00:04:50;;;;;;;15.17;5.10;;;;;;;12.83;100.00;93468.19;5075246;28;20564;-79
2021/07/26 00:07:16;;;;;;;8.63;5.10;;;;;;;12.86;100.00;93467.75;5081782;28;20201;-80
2021/07/26 00:09:43;;;;;;;11.00;5.50;;;;;;;12.78;100.00;93469.63;5095603;28;20214;-80
2021/07/26 00:12:10;;;;;;;10.60;5.67;;;;;;;12.75;100.00;93474.53;5095539;28;20251;-79
2021/07/26 00:14:36;;;;;;;15.37;5.60;;;;;;;12.78;100.00;93469.63;5095408;28;20201;-79
2021/07/26 00:17:03;;;;;;;10.45;6.40;;;;;;;12.74;100.00;93484.22;5094580;28;20927;-80
2021/07/26 00:19:30;;;;;;;12.60;5.33;;;;;;;12.75;100.00;93485.78;5095168;28;20560;-81
2021/07/26 00:21:57;;;;;;;11.37;4.87;;;;;;;12.65;100.00;93492.59;5095599;28;20198;-80
2021/07/26 00:24:24;;;;;;;9.23;4.97;;;;;;;12.64;100.00;93496.22;5095089;28;20202;-80
2021/07/26 00:26:52;;;;;;;12.60;5.20;;;;;;;12.76;100.00;93491.84;5095442;28;20202;-79
2021/07/26 00:29:19;;;;;;;12.00;5.27;;;;;;;12.77;100.00;93504.72;5095126;28;20753;-79
2021/07/26 00:31:45;;;;;;;12.00;5.33;;;;;;;12.89;100.00;93496.09;5094904;28;20656;-79
2021/07/26 00:34:20;;;;;;;11.48;5.25;;;;;;;12.87;100.00;93504.22;5095071;28;20201;-80
2021/07/26 00:36:48;;;;;;;9.30;5.40;;;;;;;12.91;100.00;93489.63;5094989;28;20280;-79
2021/07/26 00:39:18;;;;;;;11.52;5.47;;;;;;;12.97;100.00;93490.56;5094964;28;20198;-79
2021/07/26 00:41:45;;;;;;;8.30;5.15;;;;;;;13.09;100.00;93491.41;5094864;28;20205;-78
2021/07/26 00:44:12;;;;;;;10.80;5.47;;;;;;;13.11;100.00;93504.31;5094727;28;20202;-80
2021/07/26 00:46:38;;;;;;;13.53;4.97;;;;;;;13.07;100.00;93496.09;5095193;28;20205;-79
2021/07/26 00:49:07;;;;;;;9.37;5.00;;;;;;;13.09;100.00;93501.09;5094863;28;20221;-81
2021/07/26 00:51:34;;;;;;;8.93;5.00;;;;;;;13.21;100.00;93493.28;5094617;28;20569;-79
2021/07/26 00:54:01;;;;;;;9.73;5.00;;;;;;;13.23;100.00;93507.75;5094713;28;20213;-79
2021/07/26 00:56:30;;;;;;;11.53;4.87;;;;;;;13.28;100.00;93505.25;5094735;28;20407;-80
2021/07/26 00:58:57;;;;;;;14.97;4.37;;;;;;;13.26;100.00;93502.06;5094473;28;20222;-79
2021/07/26 01:01:23;;;;;;;8.10;4.75;;;;;;;13.18;100.00;93510.25;5094277;28;20437;-79
2021/07/26 01:03:50;;;;;;;9.55;4.40;;;;;;;13.16;100.00;93504.44;5094486;28;20231;-80
2021/07/26 01:06:17;;;;;;;12.60;4.40;;;;;;;13.12;100.00;93500.63;5094499;28;20199;-81
2021/07/26 01:08:45;;;;;;;11.07;4.53;;;;;;;13.10;100.00;93497.44;5094255;28;20205;-80
2021/07/26 01:11:11;;;;;;;11.38;4.80;;;;;;;13.07;100.00;93503.94;5094284;28;20259;-80
2021/07/26 01:13:39;;;;;;;11.73;5.03;;;;;;;13.05;100.00;93495.50;5094368;28;20202;-80
2021/07/26 01:16:06;;;;;;;8.43;4.63;;;;;;;13.09;100.00;93494.03;5094395;28;20198;-79
2021/07/26 01:18:33;;;;;;;9.37;4.57;;;;;;;13.09;100.00;93490.59;5094146;28;20230;-80
2021/07/26 01:21:02;;;;;;;10.53;4.60;;;;;;;13.09;100.00;93488.78;5094166;28;20206;-79
2021/07/26 01:23:30;;;;;;;10.55;4.60;;;;;;;13.09;100.00;93486.19;5093978;28;20633;-80
2021/07/26 01:25:57;;;;;;;9.05;5.00;;;;;;;13.14;100.00;93488.13;5093869;28;20642;-79
2021/07/26 01:28:27;;;;;;;7.30;4.90;;;;;;;13.19;100.00;93490.06;5094040;28;20206;-82
2021/07/26 01:30:53;;;;;;;7.63;4.55;;;;;;;13.16;100.00;93480.84;5093794;28;20198;-82
2021/07/26 01:33:20;;;;;;;11.83;4.93;;;;;;;13.19;100.00;93484.81;5093698;28;20198;-82
2021/07/26 01:35:47;;;;;;;8.57;4.67;;;;;;;13.18;100.00;93485.88;5093040;28;20233;-82
2021/07/26 01:38:14;;;;;;;9.52;5.07;;;;;;;13.13;100.00;93486.53;5093728;28;20230;-79
2021/07/26 01:40:44;;;;;;;12.77;4.40;;;;;;;13.11;100.00;93488.56;5093719;28;20229;-79
2021/07/26 01:43:11;;;;;;;8.30;4.70;;;;;;;13.09;100.00;93495.84;5093985;28;20194;-79
2021/07/26 01:45:40;;;;;;;8.03;4.70;;;;;;;13.09;100.00;93498.47;5093808;28;20198;-81
2021/07/26 01:48:12;;;;;;;9.53;5.40;;;;;;;13.07;100.00;93495.28;5093769;28;20198;-82
2021/07/26 01:50:44;;;;;;;7.73;4.70;;;;;;;13.00;100.00;93491.94;5093652;28;20202;-80
2021/07/26 01:53:11;;;;;;;7.97;4.72;;;;;;;12.99;100.00;93495.56;5093514;28;20197;-80
2021/07/26 01:55:41;;;;;;;9.10;4.85;;;;;;;13.01;100.00;93496.19;5093593;28;20194;-80
2021/07/26 01:58:08;;;;;;;11.13;4.85;;;;;;;13.06;100.00;93497.09;5092737;28;20711;-80
2021/07/26 02:00:34;;;;;;;13.20;4.75;;;;;;;13.02;100.00;93503.00;5093514;28;20210;-80
2021/07/26 02:03:04;;;;;;;11.13;4.60;;;;;;;13.01;100.00;93509.28;5093438;28;20201;-79
2021/07/26 02:05:30;;;;;;;9.60;4.70;;;;;;;13.07;100.00;93505.75;5093258;28;20198;-79
2021/07/26 02:07:56;;;;;;;14.82;4.55;;;;;;;13.11;100.00;93499.06;5093239;28;20661;-79
2021/07/26 02:10:26;;;;;;;13.70;4.83;;;;;;;13.12;100.00;93501.47;5093400;28;20251;-81
2021/07/26 02:12:56;;;;;;;9.68;4.80;;;;;;;13.15;100.00;93508.06;5093212;28;20202;-80
2021/07/26 02:15:23;;;;;;;9.82;5.10;;;;;;;13.20;100.00;93512.66;5093272;28;20205;-81
2021/07/26 02:17:52;;;;;;;8.23;4.77;;;;;;;13.27;100.00;93503.69;5092979;28;20233;-79
2021/07/26 02:20:19;;;;;;;11.50;4.88;;;;;;;13.33;100.00;93499.38;5092981;28;20202;-81
2021/07/26 02:22:48;;;;;;;10.48;4.30;;;;;;;13.37;100.00;93497.09;5093275;28;20217;-79
2021/07/26 02:25:16;;;;;;;8.73;4.72;;;;;;;13.35;100.00;93504.41;5093148;28;20289;-80
2021/07/26 02:27:43;;;;;;;10.87;4.20;;;;;;;13.30;100.00;93508.44;5093147;28;20240;-79
2021/07/26 02:30:11;;;;;;;10.50;5.10;;;;;;;13.31;100.00;93507.44;5092383;28;20432;-79
2021/07/26 02:32:38;;;;;;;8.55;4.95;;;;;;;13.33;100.00;93521.16;5093115;28;20245;-78
2021/07/26 02:35:05;;;;;;;9.87;4.20;;;;;;;13.33;100.00;93517.72;5093098;28;20268;-80
2021/07/26 02:37:31;;;;;;;10.57;4.40;;;;;;;13.31;100.00;93515.31;5092918;28;20226;-81
2021/07/26 02:39:58;;;;;;;12.63;4.53;;;;;;;13.31;100.00;93509.25;5093035;28;20232;-80
2021/07/26 02:42:24;;;;;;;10.00;3.75;;;;;;;13.28;100.00;93505.25;5092978;28;20202;-80
2021/07/26 02:44:51;;;;;;;10.50;5.07;;;;;;;13.31;100.00;93504.81;5092893;28;20255;-79
2021/07/26 02:47:18;;;;;;;7.77;4.17;;;;;;;13.35;100.00;93525.38;5093942;28;20255;-79
2021/07/26 02:49:45;;;;;;;8.57;4.80;;;;;;;13.37;100.00;93531.19;5096853;28;20616;-79
2021/07/26 02:52:11;;;;;;;12.77;4.50;;;;;;;13.41;100.00;93521.88;5097145;28;20201;-80
2021/07/26 02:54:38;;;;;;;7.88;4.50;;;;;;;13.42;100.00;93526.06;5096985;28;20198;-80
2021/07/26 02:57:05;;;;;;;8.60;4.18;;;;;;;13.46;100.00;93522.00;5096906;28;20206;-79
2021/07/26 02:59:33;;;;;;;9.45;4.80;;;;;;;13.49;100.00;93535.47;5096756;28;20589;-79
2021/07/26 03:01:59;;;;;;;7.33;4.20;;;;;;;13.47;100.00;93534.06;5097168;28;20205;-80
2021/07/26 03:04:28;;;;;;;8.23;4.43;;;;;;;13.48;100.00;93528.59;5096837;28;20194;-81
2021/07/26 03:06:55;;;;;;;9.90;4.05;;;;;;;13.47;100.00;93523.56;5096700;28;20610;-81
2021/07/26 03:09:21;;;;;;;8.23;4.43;;;;;;;13.45;100.00;93521.19;5096592;28;20202;-81
2021/07/26 03:11:50;;;;;;;9.88;4.40;;;;;;;13.53;100.00;93530.56;5096606;28;20648;-80
2021/07/26 03:14:17;;;;;;;8.85;3.63;;;;;;;13.59;100.00;93541.97;5096441;28;20209;-81
2021/07/26 03:16:43;;;;;;;10.23;3.90;;;;;;;13.60;100.00;93536.50;5096815;28;20202;-81
2021/07/26 03:19:10;;;;;;;8.57;3.92;;;;;;;13.59;100.00;93527.03;5096476;28;20296;-80
2021/07/26 03:21:38;;;;;;;9.18;3.92;;;;;;;13.59;100.00;93527.03;5096854;28;20202;-81
2021/07/26 03:24:05;;;;;;;5.95;3.85;;;;;;;13.57;100.00;93531.69;5087580;28;20240;-80
2021/07/26 03:26:32;;;;;;;7.38;3.97;;;;;;;13.59;100.00;93527.03;5076094;28;20203;-81
2021/07/26 03:28:58;;;;;;;8.13;3.67;;;;;;;13.68;100.00;93535.38;5075899;28;20671;-81
2021/07/26 03:31:25;;;;;;;7.32;3.92;;;;;;;13.75;100.00;93536.06;5076087;28;20206;-82
2021/07/26 03:33:51;;;;;;;6.90;3.85;;;;;;;13.88;100.00;93535.06;5076045;28;20199;-82
2021/07/26 03:36:18;;;;;;;5.43;3.20;;;;;;;13.93;100.00;93537.03;5075808;28;20234;-80
2021/07/26 03:38:45;;;;;;;5.40;3.70;;;;;;;14.03;100.00;93530.16;5075775;28;20230;-81
2021/07/26 03:41:12;;;;;;;9.88;3.60;;;;;;;14.09;100.00;93519.78;5075643;28;20600;-80
2021/07/26 03:43:38;;;;;;;9.85;3.42;;;;;;;14.18;100.00;93515.78;5075673;28;20285;-83
2021/07/26 03:46:06;;;;;;;6.43;3.80;;;;;;;14.26;100.00;93520.69;5076045;28;20210;-81
2021/07/26 03:48:33;;;;;;;6.07;3.55;;;;;;;14.36;100.00;93530.63;5075637;28;20210;-81
2021/07/26 03:50:59;;;;;;;7.28;3.53;;;;;;;14.39;100.00;93525.72;5075373;28;20252;-81
2021/07/26 03:53:29;;;;;;;8.10;3.85;;;;;;;14.36;100.00;93510.41;5075596;28;20203;-81
2021/07/26 03:55:57;;;;;;;5.72;3.58;;;;;;;14.31;100.00;93509.53;5075342;28;20256;-80
2021/07/26 03:58:23;;;;;;;7.90;4.13;;;;;;;14.27;100.00;93503.91;5074529;28;20511;-80
2021/07/26 04:00:50;;;;;;;9.85;4.40;;;;;;;14.31;100.00;93499.81;5077427;28;20194;-80
2021/07/26 04:03:23;;;;;;;6.60;4.00;;;;;;;14.41;100.00;93510.53;5095483;28;20649;-80
2021/07/26 04:05:55;;;;;;;7.78;4.07;;;;;;;14.41;100.00;93497.38;5095881;28;20194;-81
2021/07/26 04:08:24;;;;;;;8.25;4.20;;;;;;;14.50;100.00;93489.94;5095610;28;20202;-81
2021/07/26 04:10:58;;;;;;;9.57;4.55;;;;;;;14.52;100.00;93485.28;5095848;28;20202;-80
2021/07/26 04:13:26;;;;;;;9.60;4.25;;;;;;;14.50;100.00;93478.66;5095528;28;20255;-82
2021/07/26 04:15:55;;;;;;;8.80;4.50;;;;;;;14.45;100.00;93474.09;5095428;28;20198;-80
2021/07/26 04:18:21;;;;;;;7.93;4.43;;;;;;;14.40;100.00;93479.22;5095306;28;20298;-80
2021/07/26 04:20:48;;;;;;;9.63;4.85;;;;;;;14.40;100.00;93495.00;5095392;28;20213;-81
2021/07/26 04:23:14;;;;;;;9.43;4.93;;;;;;;14.38;100.00;93497.06;5095066;28;20197;-81
2021/07/26 04:25:41;;;;;;;11.60;5.00;;;;;;;14.28;100.00;93486.34;5094853;28;20606;-81
2021/07/26 04:28:07;;;;;;;6.38;4.30;;;;;;;14.19;100.00;93494.56;5095019;28;20660;-80
2021/07/26 04:30:35;;;;;;;6.40;3.92;;;;;;;14.08;100.00;93490.09;5095162;28;20201;-80
2021/07/26 04:33:02;;;;;;;8.07;4.15;;;;;;;14.01;100.00;93486.81;5095166;28;20198;-82
2021/07/26 04:35:28;;;;;;;6.82;4.22;;;;;;;14.01;100.00;93498.09;5094871;28;20236;-81
2021/07/26 04:37:55;;;;;;;12.05;4.47;;;;;;;13.98;100.00;93497.75;5094761;28;20611;-80
2021/07/26 04:40:23;;;;;;;7.68;4.82;;;;;;;13.99;100.00;93497.53;5094939;28;20201;-80
2021/07/26 04:42:53;;;;;;;14.35;5.60;;;;;;;14.05;100.00;93498.44;5094226;28;20445;-82
2021/07/26 04:45:19;;;;;;;7.88;5.18;;;;;;;14.09;100.00;93494.34;5095097;28;20205;-82
2021/07/26 04:47:47;;;;;;;9.23;4.95;;;;;;;14.10;100.00;93495.94;5094769;28;20202;-81
2021/07/26 04:50:14;;;;;;;9.57;4.57;;;;;;;14.05;100.00;93498.44;5094603;28;20259;-82
2021/07/26 04:52:40;;;;;;;7.18;4.75;;;;;;;14.02;100.00;93510.22;5094784;28;20209;-81
2021/07/26 04:55:08;;;;;;;8.73;5.10;;;;;;;14.11;100.00;93507.25;5094540;28;20726;-81
2021/07/26 04:57:35;;;;;;;9.40;5.75;;;;;;;14.34;100.00;93512.47;5094578;28;20236;-81
2021/07/26 05:00:04;;;;;;;17.75;6.43;;;;;;;14.51;100.00;93511.78;5094350;28;20589;-80
2021/07/26 05:02:31;;;;;;;17.25;5.90;;;;;;;14.60;100.00;93508.59;5094445;28;20224;-81
2021/07/26 05:05:01;;;;;;;11.60;5.70;;;;;;;14.65;100.00;93507.88;5094296;28;20212;-82
2021/07/26 05:07:27;;;;;;;9.23;5.05;;;;;;;14.69;100.00;93513.47;5094421;28;20201;-82
2021/07/26 05:09:54;;;;;;;7.95;5.20;;;;;;;14.72;100.00;93505.13;5093495;28;20215;-81
2021/07/26 05:12:20;;;;;;;15.20;5.78;;;;;;;14.81;100.00;93498.47;5094261;28;20267;-80
2021/07/26 05:14:48;;;;;;;8.57;5.03;;;;;;;14.86;100.00;93500.41;5094303;28;20193;-81
2021/07/26 05:17:17;;;;;;;9.45;5.20;;;;;;;14.92;100.00;93497.66;5094009;28;20534;-79
2021/07/26 05:19:43;;;;;;;9.90;4.47;;;;;;;15.02;100.00;93502.31;5094311;28;20317;-81
2021/07/26 05:22:11;;;;;;;9.13;4.57;;;;;;;15.14;100.00;93499.63;5094235;28;20299;-81
2021/07/26 05:24:38;;;;;;;7.40;4.30;;;;;;;15.26;100.00;93503.00;5080696;28;20195;-81
2021/07/26 05:27:07;;;;;;;8.75;4.80;;;;;;;15.38;100.00;93500.31;5072747;28;20443;-81
2021/07/26 05:29:34;;;;;;;7.85;4.65;;;;;;;15.49;100.00;93503.91;5073565;28;20309;-79
2021/07/26 05:32:00;;;;;;;9.15;4.68;;;;;;;15.62;100.00;93506.25;5073837;28;20257;-80
2021/07/26 05:34:27;;;;;;;8.25;4.50;;;;;;;15.76;100.00;93501.50;5073485;28;20239;-80
2021/07/26 05:36:54;;;;;;;7.05;4.60;;;;;;;15.87;100.00;93498.00;5073686;28;20577;-80
2021/07/26 05:39:28;;;;;;;8.07;4.20;;;;;;;16.02;100.00;93500.06;5073514;28;20226;-81
2021/07/26 05:42:00;;;;;;;6.38;4.20;;;;;;;16.20;100.00;93496.34;5073451;28;20202;-81
2021/07/26 05:44:27;;;;;;;5.63;4.05;;;;;;;16.72;100.00;93512.84;5073435;28;20210;-80
2021/07/26 05:46:54;;;;;;;6.15;3.55;;;;;;;17.84;100.00;93509.81;5073240;28;20203;-80
2021/07/26 05:49:21;;;;;;;8.07;3.00;;;;;;;18.68;100.00;93510.88;5073248;28;20195;-80
2021/07/26 05:51:48;;;;;;;5.78;2.50;;;;;;;20.36;100.00;93518.66;5073237;28;20286;-80
2021/07/26 05:54:15;;;;;;;3.78;2.25;;;;;;;21.00;100.00;93520.66;5073098;28;20201;-81
2021/07/26 05:56:45;;;;;;;4.00;2.33;;;;;;;20.97;100.00;93521.19;5073182;28;20206;-80
2021/07/26 05:59:15;;;;;;;8.10;2.03;;;;;;;21.13;100.00;93521.13;5073361;28;20307;-82
2021/07/26 06:01:48;;;;;;;3.53;2.17;;;;;;;21.59;100.00;93527.03;5073130;28;20720;-80
2021/07/26 06:04:16;;;;;;;4.57;2.40;;;;;;;21.18;100.00;93531.72;5073264;28;20230;-81
2021/07/26 06:06:43;;;;;;;4.60;2.20;;;;;;;20.64;100.00;93528.72;5073106;28;20203;-81
2021/07/26 06:09:10;;;;;;;3.70;2.20;;;;;;;20.02;100.00;93532.47;5072898;28;20487;-79
2021/07/26 06:11:36;;;;;;;2.72;2.15;;;;;;;19.85;100.00;93525.59;5076947;28;20493;-80
2021/07/26 06:14:04;;;;;;;3.80;2.10;;;;;;;19.91;100.00;93537.75;5073315;28;20195;-82
2021/07/26 06:16:31;;;;;;;3.35;2.20;;;;;;;20.14;100.00;93533.00;5073201;28;20206;-81
2021/07/26 06:19:00;;;;;;;4.20;2.55;;;;;;;20.38;100.00;93530.59;5072921;28;20230;-81
2021/07/26 06:21:26;;;;;;;4.20;2.10;;;;;;;20.70;100.00;93522.34;5072864;28;20213;-82
2021/07/26 06:23:54;;;;;;;5.38;2.30;;;;;;;20.84;100.00;93524.44;5079964;28;20198;-82
2021/07/26 06:26:20;;;;;;;2.92;2.30;;;;;;;20.65;100.00;93519.69;5093396;28;20278;-82
2021/07/26 06:28:47;;;;;;;3.17;2.17;;;;;;;20.45;100.00;93520.50;5093345;28;20205;-80
2021/07/26 06:31:15;;;;;;;3.50;2.40;;;;;;;20.34;100.00;93518.94;5093425;28;20205;-80
2021/07/26 06:33:41;;;;;;;3.55;1.92;;;;;;;20.12;100.00;93521.88;5093154;28;20355;-80
2021/07/26 06:36:08;;;;;;;2.90;2.03;;;;;;;20.03;100.00;93516.28;5092807;28;20241;-81
2021/07/26 06:38:36;;;;;;;2.63;2.00;;;;;;;20.44;100.00;93526.88;5092735;28;20530;-79
2021/07/26 06:41:02;;;;;;;5.00;1.90;;;;;;;20.75;98.57;93516.22;5093088;28;20288;-83
2021/07/26 06:43:29;;;;;;;2.40;1.73;;;;;;;20.91;97.73;93519.63;5092921;28;20244;-79
2021/07/26 06:45:56;;;;;;;3.58;1.92;;;;;;;21.42;96.50;93521.25;5092877;28;20204;-80
2021/07/26 06:48:24;;;;;;;3.55;2.13;;;;;;;21.37;92.92;93526.59;5092876;28;20194;-80
2021/07/26 06:50:51;;;;;;;2.47;1.60;;;;;;;21.38;95.96;93525.50;5092752;28;20209;-80
2021/07/26 06:53:19;;;;;;;2.92;2.08;;;;;;;21.28;96.86;93544.94;5092453;28;20441;-79
2021/07/26 06:55:45;;;;;;;2.58;2.05;;;;;;;21.30;97.04;93545.50;5092934;28;20198;-80
2021/07/26 06:58:12;;;;;;;4.03;1.90;;;;;;;21.08;94.42;93548.47;5092663;28;20666;-80
2021/07/26 07:00:38;;;;;;;3.28;1.85;;;;;;;21.29;91.29;93543.09;5092861;28;20268;-80
2021/07/26 07:03:05;;;;;;;2.78;1.77;;;;;;;21.28;91.49;93554.78;5092867;28;20299;-80
2021/07/26 07:05:32;;;;;;;3.35;1.85;;;;;;;21.29;86.59;93559.03;5092550;28;20225;-80
2021/07/26 07:07:59;;;;;;;2.33;1.77;;;;;;;21.43;85.87;93555.53;5092959;28;20227;-80
2021/07/26 07:10:26;;;;;;;3.30;1.85;;;;;;;21.67;90.16;93556.75;5092727;28;20198;-80
2021/07/26 07:12:52;;;;;;;3.30;1.90;;;;;;;21.65;93.66;93551.72;5092673;28;20205;-80
2021/07/26 07:15:23;;;;;;;3.13;1.65;;;;;;;21.39;92.23;93559.00;5092706;28;20252;-80
2021/07/26 07:17:50;;;;;;;3.55;1.88;;;;;;;21.14;90.77;93567.84;5092705;28;20233;-80
2021/07/26 07:20:17;;;;;;;2.95;1.92;;;;;;;21.06;94.15;93570.00;5092435;28;20233;-82
2021/07/26 07:22:45;;;;;;;2.60;2.10;;;;;;;20.82;97.34;93572.47;5092446;28;20652;-81
2021/07/26 07:25:12;;;;;;;3.25;2.13;;;;;;;20.55;97.04;93577.25;5092549;28;20239;-81
2021/07/26 07:27:39;;;;;;;3.55;2.15;;;;;;;20.65;98.70;93571.94;5074510;28;20199;-82
2021/07/26 07:30:07;;;;;;;3.55;1.90;;;;;;;20.81;94.80;93575.38;5092501;28;20198;-81
2021/07/26 07:32:36;;;;;;;3.13;2.28;;;;;;;20.82;95.47;93574.31;5092383;28;20209;-80
2021/07/26 07:35:02;;;;;;;3.72;2.15;;;;;;;20.97;94.05;93582.25;5096256;28;20230;-82
2021/07/26 07:37:29;;;;;;;2.03;1.83;;;;;;;21.16;93.19;93586.97;5096249;28;20234;-81
2021/07/26 07:39:58;;;;;;;3.45;1.90;;;;;;;21.44;88.21;93586.31;5096168;28;20230;-83
2021/07/26 07:42:24;;;;;;;46.97;4.40;;;;;;;21.43;87.88;93592.72;5096276;28;20198;-81
2021/07/26 07:44:55;;;;;;;17.63;3.78;;;;;;;21.86;85.99;93592.22;5096490;28;20198;-85
2021/07/26 07:47:21;;;;;;;3.58;2.15;;;;;;;22.21;86.72;93594.94;5095977;28;20194;-84
2021/07/26 07:49:48;;;;;;;2.28;1.90;;;;;;;22.38;82.72;93595.34;5096124;28;20553;-84
2021/07/26 07:52:14;;;;;;;2.55;1.90;;;;;;;22.20;84.43;93593.34;5095896;28;20234;-84
2021/07/26 07:54:42;;;;;;;3.55;1.80;;;;;;;22.26;84.11;93592.25;5095765;28;20752;-83
2021/07/26 07:57:10;;;;;;;4.28;1.90;;;;;;;22.26;84.34;93603.66;5095829;28;20194;-84
2021/07/26 07:59:36;;;;;;;4.18;2.10;;;;;;;22.42;83.73;93601.72;5095687;28;20592;-85
2021/07/26 08:02:06;;;;;;;2.58;1.70;;;;;;;22.60;86.41;93602.09;5094504;28;20217;-85
2021/07/26 08:04:35;;;;;;;8.45;2.40;;;;;;;;;;5095496;28;20665;-84
2021/07/26 08:07:04;;;;;;;2.28;1.80;;;;;;;22.69;85.05;93600.44;5096276;28;20233;-82
2021/07/26 08:09:37;;;;;;;4.50;2.33;;;;;;;22.91;88.40;93592.78;5095874;28;20721;-84
2021/07/26 08:12:04;;;;;;;5.40;2.08;;;;;;;22.86;85.24;93594.66;5095790;28;20205;-82
2021/07/26 08:14:32;;;;;;;3.72;1.98;;;;;;;22.60;85.41;93596.78;5097378;28;20664;-83
2021/07/26 08:17:01;;;;;;;2.75;2.10;;;;;;;23.13;80.79;93588.81;5096535;28;20197;-83
2021/07/26 08:19:28;;;;;;;4.45;2.10;;;;;;;23.14;82.03;93593.06;5095474;28;20264;-83
2021/07/26 08:21:54;;;;;;;2.75;1.98;;;;;;;22.73;86.03;93591.59;5094747;28;20205;-81
2021/07/26 08:24:21;;;;;;;3.47;2.30;;;;;;;22.53;87.23;93591.78;5091674;28;20198;-80
2021/07/26 08:26:47;;;;;;;2.90;2.10;;;;;;;22.10;89.86;93587.03;5081874;28;20605;-84
2021/07/26 08:29:14;;;;;;;4.43;2.28;;;;;;;21.85;89.60;93587.19;5075168;28;20202;-84
2021/07/26 08:31:42;;;;;;;3.85;2.20;;;;;;;21.89;89.99;93581.06;5074851;28;20557;-83
2021/07/26 08:34:09;;;;;;;5.75;2.55;;;;;;;21.19;91.01;93587.22;5075967;28;20199;-80
2021/07/26 08:36:37;;;;;;;4.93;2.15;;;;;;;20.94;95.94;93590.75;5075094;28;20286;-85
2021/07/26 08:39:04;;;;;;;4.15;2.30;;;;;;;21.09;96.62;93586.47;5075154;28;20562;-84
2021/07/26 08:41:30;;;;;;;8.50;2.80;;;;;;;20.96;98.93;93587.81;5074656;28;20317;-79
2021/07/26 08:43:57;;;;;;;3.95;2.50;;;;;;;21.02;98.60;93587.53;5075000;28;20207;-85
2021/07/26 08:46:26;;;;;;;4.20;2.53;;;;;;;21.23;100.00;93580.31;5075438;28;20264;-79
2021/07/26 08:48:54;;;;;;;4.30;2.40;;;;;;;21.63;97.79;93591.03;5075148;28;20252;-81
2021/07/26 08:51:21;;;;;;;4.55;2.30;;;;;;;21.36;94.71;93591.41;5075741;28;20199;-85
2021/07/26 08:53:50;;;;;;;4.40;2.67;;;;;;;21.49;92.83;93590.06;5074201;28;20650;-84
2021/07/26 08:56:18;;;;;;;5.03;2.42;;;;;;;21.28;91.28;93589.31;5074436;28;20260;-85
2021/07/26 08:58:44;;;;;;;6.78;2.50;;;;;;;21.53;89.66;93591.09;5074782;28;20198;-86
2021/07/26 09:01:13;;;;;;;6.43;2.30;;;;;;;21.73;85.82;93593.66;5075288;28;20258;-83
2021/07/26 09:03:39;;;;;;;6.93;2.42;;;;;;;21.79;86.76;93592.53;5076590;28;20295;-86
2021/07/26 09:06:08;;;;;;;3.88;2.25;;;;;;;21.74;86.78;93592.56;5076560;28;20199;-85
2021/07/26 09:08:36;;;;;;;6.50;2.22;;;;;;;21.59;84.35;93597.97;5077812;28;20194;-84
2021/07/26 09:11:04;;;;;;;5.35;2.10;;;;;;;21.65;86.01;93596.88;5077198;28;20202;-83
2021/07/26 09:13:35;;;;;;;5.50;2.55;;;;;;;21.44;85.70;93590.84;5076702;28;20199;-85
2021/07/26 09:16:14;;;;;;;4.13;2.40;;;;;;;21.47;91.88;93589.47;5075908;28;20703;-83
2021/07/26 09:18:41;;;;;;;5.88;2.50;;;;;;;21.52;91.21;93590.31;5074822;28;20210;-81
2021/07/26 09:21:09;;;;;;;3.35;2.20;;;;;;;21.77;86.87;93584.06;5074170;28;20241;-83
2021/07/26 09:23:39;;;;;;;4.10;2.15;;;;;;;21.71;84.02;93590.47;5074620;28;20588;-83
2021/07/26 09:26:27;;;;;;;3.97;2.20;;;;;;;21.64;81.53;93575.91;5074230;28;20657;-85
2021/07/26 09:28:53;;;;;;;5.45;2.75;;;;;;;21.75;83.34;93583.53;5076418;28;20557;-82
2021/07/26 09:31:20;;;;;;;6.00;2.35;;;;;;;22.13;87.51;93577.69;5074085;28;20213;-82
2021/07/26 09:33:49;;;;;;;4.22;2.40;;;;;;;22.31;83.27;93579.72;5075877;28;20559;-84
2021/07/26 09:36:19;;;;;;;3.38;2.15;;;;;;;22.43;81.87;93579.38;5073793;28;20224;-82
2021/07/26 09:38:56;;;;;;;5.18;2.33;;;;;;;22.34;82.30;93578.38;5074266;28;20233;-83
2021/07/26 09:41:41;;;;;;;5.78;2.55;;;;;;;22.50;88.80;93579.84;5073624;28;20284;-84
2021/07/26 09:44:09;;;;;;;3.47;2.30;;;;;;;22.10;85.79;93580.91;5073397;28;20199;-82
2021/07/26 09:46:38;;;;;;;3.85;2.10;;;;;;;22.09;85.38;93574.81;5073872;28;20199;-85
2021/07/26 09:49:09;;;;;;;5.53;2.47;;;;;;;22.47;82.06;93572.41;5073703;28;20289;-79
2021/07/26 09:51:37;;;;;;;3.45;2.22;;;;;;;22.72;81.54;93581.25;5073577;28;20230;-82
2021/07/26 09:54:04;;;;;;;4.32;2.67;;;;;;;22.96;78.88;93585.78;5073868;28;20221;-84
2021/07/26 09:56:32;;;;;;;4.68;2.35;;;;;;;22.69;81.44;93589.78;5073941;28;20650;-81
2021/07/26 09:58:58;;;;;;;3.80;2.58;;;;;;;23.41;75.62;93573.84;5073364;28;20210;-82
2021/07/26 10:01:26;;;;;;;4.80;2.40;;;;;;;23.79;74.62;93567.75;5073299;28;20280;-81
2021/07/26 10:03:53;;;;;;;5.72;2.40;;;;;;;23.59;75.48;93569.63;5073221;28;20653;-79
2021/07/26 10:06:20;;;;;;;3.60;2.25;;;;;;;23.35;77.57;93569.66;5073213;28;20210;-81
2021/07/26 10:08:49;;;;;;;6.97;2.50;;;;;;;23.31;83.40;93567.84;5073219;28;20202;-81
2021/07/26 10:11:16;;;;;;;4.85;2.58;;;;;;;22.99;78.94;93574.59;5073117;28;20617;-80
2021/07/26 10:13:46;;;;;;;5.00;2.40;;;;;;;23.05;80.04;93581.44;5073331;28;20198;-80
2021/07/26 10:16:14;;;;;;;3.80;2.20;;;;;;;23.38;82.51;93570.97;5073189;28;20207;-80
2021/07/26 10:18:42;;;;;;;4.50;2.38;;;;;;;23.52;76.97;93561.19;5073174;28;20294;-80
2021/07/26 10:21:09;;;;;;;6.07;2.30;;;;;;;23.99;76.82;93564.03;5072875;28;20272;-79
2021/07/26 10:23:38;;;;;;;3.30;2.20;;;;;;;23.89;75.94;93570.31;5073480;28;20198;-78
2021/07/26 10:26:08;;;;;;;4.88;2.63;;;;;;;23.62;75.40;93562.94;5073238;28;20210;-79
2021/07/26 10:28:37;;;;;;;4.00;2.40;;;;;;;23.15;77.77;93565.38;5092972;28;20653;-79
2021/07/26 10:31:34;;;;;;;4.55;2.30;;;;;;;23.28;77.35;93558.53;5093164;28;20327;-79
2021/07/26 10:34:02;;;;;;;5.10;2.53;;;;;;;23.01;81.44;93564.44;5093050;28;20271;-80
2021/07/26 10:36:47;;;;;;;3.90;2.17;;;;;;;22.71;79.07;93561.00;5093102;28;20558;-79
2021/07/26 10:39:14;;;;;;;4.13;2.67;;;;;;;22.65;79.41;93562.13;5093309;28;20648;-79
2021/07/26 10:42:06;;;;;;;6.55;2.28;;;;;;;22.52;85.55;93553.72;5093138;28;20260;-79
2021/07/26 10:44:45;;;;;;;10.68;2.80;;;;;;;23.00;78.91;93553.00;5093116;28;20565;-78
2021/07/26 10:47:16;;;;;;;4.78;2.42;;;;;;;23.28;77.26;93548.69;5093080;28;20197;-78
2021/07/26 10:50:11;;;;;;;5.60;2.42;;;;;;;23.95;77.39;93550.50;5092889;28;20197;-78
2021/07/26 10:52:45;;;;;;;4.90;2.30;;;;;;;24.68;75.64;93553.63;5092820;28;20205;-78
2021/07/26 10:55:56;;;;;;;4.20;2.50;;;;;;;24.21;72.35;93552.75;5093018;28;20251;-77
2021/07/26 10:59:00;;;;;;;6.88;2.70;;;;;;;24.29;72.38;93549.44;5092964;28;20202;-78
2021/07/26 11:01:57;;;;;;;5.03;2.60;;;;;;;23.50;73.06;93543.88;5092859;28;20228;-78
2021/07/26 11:04:40;;;;;;;7.18;3.92;;;;;;;23.55;75.49;93541.16;5092730;28;20202;-77
2021/07/26 11:07:28;;;;;;;3.63;2.47;;;;;;;23.68;74.95;93539.66;5092949;28;20201;-77
2021/07/26 11:09:55;;;;;;;6.25;2.65;;;;;;;23.80;74.50;93535.47;5085352;28;20198;-77
2021/07/26 11:12:53;;;;;;;4.75;2.40;;;;;;;23.85;73.89;93534.66;5096785;28;20198;-78
2021/07/26 11:15:22;;;;;;;3.70;2.05;;;;;;;23.32;73.42;93540.16;5096668;28;20210;-78
2021/07/26 11:18:18;;;;;;;4.35;2.42;;;;;;;23.36;77.42;93531.28;5096653;28;20615;-79
2021/07/26 11:21:08;;;;;;;6.85;2.60;;;;;;;23.33;73.53;93523.06;5096681;28;20226;-77
2021/07/26 11:23:45;;;;;;;5.75;2.58;;;;;;;23.48;75.44;93514.84;5096926;28;20205;-78
2021/07/26 11:26:20;;;;;;;6.18;2.28;;;;;;;23.01;75.15;93522.59;5096423;28;20224;-78
2021/07/26 11:28:48;;;;;;;5.13;2.33;;;;;;;22.82;82.82;93519.13;5096540;28;20205;-78
2021/07/26 11:31:22;;;;;;;3.53;2.20;;;;;;;22.69;79.54;93505.41;5096241;28;20205;-78
2021/07/26 11:33:50;;;;;;;4.18;2.78;;;;;;;22.69;79.84;93515.25;5096379;28;20197;-78
2021/07/26 11:36:16;;;;;;;4.53;2.40;;;;;;;22.64;83.91;93516.09;5096215;28;20226;-78